createdAt,value
2018-11-06T00:02:02.721Z,100004.11
2018-11-06T00:04:36.697Z,100003.20
2018-11-06T00:07:05.351Z,99999.95
2018-11-06T00:09:34.000Z,100000.65
2018-11-06T00:12:02.679Z,99999.23
2018-11-06T00:14:31.582Z,99996.13
2018-11-06T00:17:00.186Z,99999.22
2018-11-06T00:19:29.091Z,100004.84
2018-11-06T00:21:57.832Z,100008.74
2018-11-06T00:24:26.843Z,100003.19
2018-11-06T00:26:55.516Z,100010.17
2018-11-06T00:29:24.149Z,100012.44
2018-11-06T00:31:52.824Z,100013.97
2018-11-06T00:34:21.569Z,100010.95
2018-11-06T00:36:50.338Z,100001.03
2018-11-06T00:39:18.969Z,99998.66
2018-11-06T00:41:47.559Z,99998.97
2018-11-06T00:44:16.162Z,100009.22
2018-11-06T00:46:44.803Z,100014.34
2018-11-06T00:49:13.546Z,100015.45
2018-11-06T00:51:42.357Z,100009.80
2018-11-06T00:54:12.133Z,100004.98
2018-11-06T00:56:40.733Z,100004.98
2018-11-06T00:59:10.088Z,100007.64
2018-11-06T01:01:39.017Z,100004.79
2018-11-06T01:04:08.675Z,100005.08
2018-11-06T01:06:37.473Z,100012.47
2018-11-06T01:09:09.696Z,100020.03
2018-11-06T01:11:38.565Z,100023.70
2018-11-06T01:14:07.689Z,100015.71
2018-11-06T01:16:36.451Z,100021.61
2018-11-06T01:19:05.287Z,100008.56
2018-11-06T01:21:34.037Z,100013.28
2018-11-06T01:24:03.079Z,100012.33
2018-11-06T01:26:32.234Z,100017.84
2018-11-06T01:29:01.170Z,100010.45
2018-11-06T01:31:30.041Z,100014.63
2018-11-06T01:33:58.879Z,100020.88
2018-11-06T01:36:27.571Z,100024.60
2018-11-06T01:38:56.439Z,100020.37
2018-11-06T01:41:25.100Z,100018.53
2018-11-06T01:43:54.059Z,100015.12
2018-11-06T01:46:22.847Z,100014.52
2018-11-06T01:48:51.677Z,100012.27
2018-11-06T01:51:20.572Z,100005.42
2018-11-06T01:53:49.290Z,100008.64
2018-11-06T01:56:18.107Z,100010.94
2018-11-06T01:58:46.853Z,100013.33
2018-11-06T02:01:15.467Z,100008.85
2018-11-06T02:03:44.175Z,100010.75
2018-11-06T02:06:12.969Z,100009.34
2018-11-06T02:08:41.684Z,100010.17
2018-11-06T02:11:10.483Z,100011.31
2018-11-06T02:13:39.096Z,100012.14
2018-11-06T02:16:08.089Z,100010.87
2018-11-06T02:18:36.831Z,100009.22
2018-11-06T02:21:05.943Z,99999.98
2018-11-06T02:23:34.628Z,99999.19
2018-11-06T02:26:03.365Z,99996.89
2018-11-06T02:28:32.136Z,99999.55
2018-11-06T02:31:00.892Z,100001.34
2018-11-06T02:33:29.611Z,100001.72
2018-11-06T02:35:58.384Z,100015.09
2018-11-06T02:38:27.192Z,100018.84
2018-11-06T02:40:55.924Z,100020.75
2018-11-06T02:43:24.617Z,100018.69
2018-11-06T02:45:53.184Z,100013.87
2018-11-06T02:48:21.894Z,100014.08
2018-11-06T02:50:50.615Z,100009.55
2018-11-06T02:53:19.258Z,100007.75
2018-11-06T02:55:47.961Z,100005.14
2018-11-06T02:58:16.773Z,100010.42
2018-11-06T03:00:45.996Z,100016.45
2018-11-06T03:03:14.805Z,100011.13
2018-11-06T03:05:43.553Z,100007.27
2018-11-06T03:08:12.172Z,100017.86
2018-11-06T03:10:41.064Z,100017.45
2018-11-06T03:13:09.598Z,100025.51
2018-11-06T03:15:38.259Z,100016.92
2018-11-06T03:18:07.324Z,100020.19
2018-11-06T03:20:36.052Z,100019.59
2018-11-06T03:23:04.620Z,100025.42
2018-11-06T03:25:33.298Z,100025.78
2018-11-06T03:28:01.995Z,100023.80
2018-11-06T03:30:30.808Z,100019.87
2018-11-06T03:32:59.488Z,100016.27
2018-11-06T03:35:28.155Z,100024.54
2018-11-06T03:37:56.789Z,100018.30
2018-11-06T03:40:25.377Z,100022.05
2018-11-06T03:42:54.037Z,100024.72
2018-11-06T03:45:22.592Z,100017.84
2018-11-06T03:47:51.228Z,100011.67
2018-11-06T03:50:19.815Z,100014.41
2018-11-06T03:52:48.490Z,100014.73
2018-11-06T03:55:17.695Z,100020.09
2018-11-06T03:57:46.333Z,100018.58
2018-11-06T04:00:15.530Z,100018.90
2018-11-06T04:02:44.920Z,100017.20
2018-11-06T04:05:14.051Z,100017.73
2018-11-06T04:07:42.676Z,100017.21
2018-11-06T04:10:12.012Z,100018.39
2018-11-06T04:12:41.342Z,100025.04
2018-11-06T04:15:11.128Z,100029.02
2018-11-06T04:17:39.899Z,100030.59
2018-11-06T04:20:09.300Z,100024.45
2018-11-06T04:22:38.131Z,100031.68
2018-11-06T04:25:07.171Z,100027.88
2018-11-06T04:27:35.805Z,100022.91
2018-11-06T04:30:05.113Z,100024.45
2018-11-06T04:32:33.712Z,100030.52
2018-11-06T04:35:02.321Z,100035.83
2018-11-06T04:37:31.062Z,100034.88
2018-11-06T04:39:59.764Z,100035.59
2018-11-06T04:42:28.570Z,100027.63
2018-11-06T04:44:57.271Z,100028.90
2018-11-06T04:47:26.088Z,100034.50
2018-11-06T04:49:55.148Z,100034.45
2018-11-06T04:52:23.968Z,100028.68
2018-11-06T04:54:52.612Z,100031.13
2018-11-06T04:57:21.451Z,100034.61
2018-11-06T04:59:50.243Z,100031.45
2018-11-06T05:02:19.103Z,100038.52
2018-11-06T05:04:47.960Z,100038.13
2018-11-06T05:07:16.551Z,100034.15
2018-11-06T05:09:45.359Z,100027.77
2018-11-06T05:12:14.112Z,100027.15
2018-11-06T05:14:42.935Z,100028.97
2018-11-06T05:17:11.576Z,100024.31
2018-11-06T05:19:40.703Z,100034.11
2018-11-06T05:22:09.474Z,100034.29
2018-11-06T05:24:38.320Z,100036.32
2018-11-06T05:27:07.079Z,100041.34
2018-11-06T05:29:35.740Z,100043.34
2018-11-06T05:32:05.377Z,100040.39
2018-11-06T05:34:34.151Z,100043.04
2018-11-06T05:37:02.787Z,100043.04
2018-11-06T05:39:31.508Z,100045.25
2018-11-06T05:42:00.567Z,100047.91
2018-11-06T05:44:29.396Z,100048.73
2018-11-06T05:46:58.148Z,100052.01
2018-11-06T05:49:26.931Z,100047.19
2018-11-06T05:51:55.696Z,100044.09
2018-11-06T05:54:24.534Z,100047.37
2018-11-06T05:56:53.285Z,100048.50
2018-11-06T05:59:22.034Z,100049.70
2018-11-06T06:01:50.669Z,100056.59
2018-11-06T06:04:19.511Z,100049.56
2018-11-06T06:06:48.268Z,100059.75
2018-11-06T06:09:17.059Z,100061.86
2018-11-06T06:11:45.844Z,100068.05
2018-11-06T06:14:14.617Z,100064.40
2018-11-06T06:16:43.473Z,100069.47
2018-11-06T06:19:12.189Z,100084.13
2018-11-06T06:21:41.937Z,100079.39
2018-11-06T06:24:10.769Z,100080.59
2018-11-06T06:26:39.524Z,100082.25
2018-11-06T06:29:08.139Z,100073.33
2018-11-06T06:31:36.799Z,100078.47
2018-11-06T06:34:05.958Z,100088.95
2018-11-06T06:36:34.635Z,100095.13
2018-11-06T06:39:03.309Z,100100.01
2018-11-06T06:41:32.112Z,100103.99
2018-11-06T06:44:00.832Z,100101.01
2018-11-06T06:46:29.669Z,100093.04
2018-11-06T06:48:58.259Z,100095.55
2018-11-06T06:51:27.102Z,100099.28
2018-11-06T06:53:56.003Z,100088.77
2018-11-06T06:56:24.679Z,100084.13
2018-11-06T06:58:53.751Z,100080.46
2018-11-06T07:01:22.425Z,100083.27
2018-11-06T07:03:51.117Z,100089.16
2018-11-06T07:06:21.892Z,100088.22
2018-11-06T07:08:50.664Z,100095.80
2018-11-06T07:11:19.457Z,100090.48
2018-11-06T07:13:48.213Z,100095.03
2018-11-06T07:16:17.930Z,100087.28
2018-11-06T07:18:46.646Z,100087.91
2018-11-06T07:21:15.338Z,100092.17
2018-11-06T07:23:44.121Z,100101.94
2018-11-06T07:26:14.915Z,100105.87
2018-11-06T07:28:43.633Z,100108.97
2018-11-06T07:31:12.321Z,100117.50
2018-11-06T07:33:41.106Z,100119.05
2018-11-06T07:36:12.009Z,100111.92
2018-11-06T07:38:40.708Z,100111.94
2018-11-06T07:41:09.443Z,100115.02
2018-11-06T07:43:38.212Z,100110.52
2018-11-06T07:46:10.621Z,100110.30
2018-11-06T07:48:39.672Z,100117.05
2018-11-06T07:51:08.456Z,100118.47
2018-11-06T07:53:37.416Z,100121.18
2018-11-06T07:56:10.408Z,100132.33
2018-11-06T07:58:39.140Z,100117.33
2018-11-06T08:01:08.115Z,100122.95
2018-11-06T08:03:36.862Z,100123.48
2018-11-06T08:06:13.432Z,100124.05
2018-11-06T08:08:42.128Z,100126.71
2018-11-06T08:11:10.851Z,100126.06
2018-11-06T08:13:39.659Z,100123.27
2018-11-06T08:16:16.005Z,100122.75
2018-11-06T08:18:44.721Z,100122.84
2018-11-06T08:21:13.765Z,100123.34
2018-11-06T08:23:42.561Z,100127.20
2018-11-06T08:26:11.634Z,100125.31
2018-11-06T08:28:40.819Z,100125.07
2018-11-06T08:31:10.025Z,100122.15
2018-11-06T08:33:38.918Z,100130.59
2018-11-06T08:36:07.672Z,100128.86
2018-11-06T08:38:36.473Z,100129.00
2018-11-06T08:41:05.346Z,100128.20
2018-11-06T08:43:34.131Z,100131.83
2018-11-06T08:46:10.232Z,100132.51
2018-11-06T08:48:38.943Z,100129.56
2018-11-06T08:51:07.743Z,100125.66
2018-11-06T08:53:36.695Z,100118.28
2018-11-06T08:56:22.512Z,100123.45
2018-11-06T08:58:51.359Z,100118.62
2018-11-06T09:01:20.136Z,100121.87
2018-11-06T09:03:48.870Z,100123.05
2018-11-06T09:06:18.671Z,100124.92
2018-11-06T09:08:47.463Z,100125.77
2018-11-06T09:11:16.176Z,100127.19
2018-11-06T09:13:44.855Z,100117.23
2018-11-06T09:16:13.612Z,100122.91
2018-11-06T09:18:42.512Z,100118.03
2018-11-06T09:21:11.317Z,100117.11
2018-11-06T09:23:40.062Z,100111.53
2018-11-06T09:26:10.859Z,100117.70
2018-11-06T09:28:39.660Z,100115.82
2018-11-06T09:31:08.630Z,100115.19
2018-11-06T09:33:37.358Z,100115.36
2018-11-06T09:36:13.872Z,100113.56
2018-11-06T09:38:42.573Z,100118.20
2018-11-06T09:41:11.336Z,100116.20
2018-11-06T09:43:40.235Z,100118.05
2018-11-06T09:46:16.833Z,100116.45
2018-11-06T09:48:45.669Z,100108.86
2018-11-06T09:51:15.252Z,100106.36
2018-11-06T09:53:44.196Z,100106.72
2018-11-06T09:56:20.452Z,100106.86
2018-11-06T09:58:49.240Z,100106.97
2018-11-06T10:01:18.000Z,100108.77
2018-11-06T10:03:46.866Z,100104.69
2018-11-06T10:06:23.682Z,100096.06
2018-11-06T10:08:52.358Z,100097.70
2018-11-06T10:11:21.286Z,100100.77
2018-11-06T10:13:49.912Z,100111.22
2018-11-06T10:16:18.585Z,100112.73
2018-11-06T10:18:47.285Z,100110.50
2018-11-06T10:21:16.054Z,100110.19
2018-11-06T10:23:44.755Z,100114.75
2018-11-06T10:26:13.467Z,100111.49
2018-11-06T10:28:52.402Z,100103.88
2018-11-06T10:31:21.496Z,100108.05
2018-11-06T10:33:51.380Z,100103.38
2018-11-06T10:36:20.305Z,100093.97
2018-11-06T10:38:58.382Z,100092.11
2018-11-06T10:41:27.125Z,100096.70
2018-11-06T10:43:56.132Z,100097.08
2018-11-06T10:46:24.972Z,100088.86
2018-11-06T10:49:10.201Z,100087.78
2018-11-06T10:51:42.803Z,100076.45
2018-11-06T10:54:12.462Z,100077.80
2018-11-06T10:56:41.962Z,100073.98
2018-11-06T10:59:10.788Z,100073.12
2018-11-06T11:01:44.905Z,100071.81
2018-11-06T11:04:17.212Z,100071.06
2018-11-06T11:06:45.966Z,100067.97
2018-11-06T11:09:15.685Z,100065.42
2018-11-06T11:11:44.471Z,100064.49
2018-11-06T11:14:13.179Z,100058.20
2018-11-06T11:16:41.999Z,100051.59
2018-11-06T11:19:11.853Z,100047.45
2018-11-06T11:21:40.771Z,100049.22
2018-11-06T11:24:09.547Z,100045.69
2018-11-06T11:26:38.458Z,100046.63
2018-11-06T11:29:16.372Z,100038.38
2018-11-06T11:31:45.085Z,100036.65
2018-11-06T11:34:13.703Z,100034.87
2018-11-06T11:36:42.348Z,100031.99
2018-11-06T11:39:11.124Z,100036.15
2018-11-06T11:41:40.173Z,100031.94
2018-11-06T11:44:08.960Z,100035.00
2018-11-06T11:46:37.673Z,100021.52
2018-11-06T11:49:07.408Z,100019.92
2018-11-06T11:51:36.252Z,100020.77
2018-11-06T11:54:05.142Z,100017.30
2018-11-06T11:56:33.982Z,100027.39
2018-11-06T11:59:02.879Z,100028.25
2018-11-06T12:01:31.795Z,100027.50
2018-11-06T12:04:00.651Z,100023.50
2018-11-06T12:06:29.496Z,100029.51
2018-11-06T12:08:59.328Z,100019.03
2018-11-06T12:11:28.041Z,100012.59
2018-11-06T12:13:56.774Z,100009.72
2018-11-06T12:16:25.636Z,100007.29
2018-11-06T12:19:17.997Z,99999.98
2018-11-06T12:21:46.805Z,100001.60
2018-11-06T12:24:15.649Z,99988.55
2018-11-06T12:26:44.251Z,99994.22
2018-11-06T12:29:14.982Z,99989.83
2018-11-06T12:31:43.644Z,99987.05
2018-11-06T12:34:12.425Z,99979.95
2018-11-06T12:36:41.255Z,99976.63
2018-11-06T12:39:11.149Z,99983.14
2018-11-06T12:41:39.987Z,99983.30
2018-11-06T12:44:09.425Z,99983.23
2018-11-06T12:46:38.152Z,99979.42
2018-11-06T12:49:07.053Z,99975.05
2018-11-06T12:51:35.845Z,99972.85
2018-11-06T12:54:04.595Z,99979.30
2018-11-06T12:56:33.300Z,99970.34
2018-11-06T12:59:04.156Z,99970.06
2018-11-06T13:01:32.932Z,99961.14
2018-11-06T13:04:03.049Z,99962.22
2018-11-06T13:06:31.829Z,99957.55
2018-11-06T13:09:10.299Z,99961.36
2018-11-06T13:11:39.503Z,99961.84
2018-11-06T13:14:08.965Z,99962.05
2018-11-06T13:16:38.336Z,99957.19
2018-11-06T13:19:09.294Z,99955.63
2018-11-06T13:21:38.060Z,99951.36
2018-11-06T13:24:06.910Z,99946.24
2018-11-06T13:26:35.700Z,99941.61
2018-11-06T13:29:13.775Z,99940.50
2018-11-06T13:31:42.486Z,99941.55
2018-11-06T13:34:11.178Z,99948.00
2018-11-06T13:36:40.039Z,99941.73
2018-11-06T13:39:16.673Z,99942.48
2018-11-06T13:41:45.377Z,99943.21
2018-11-06T13:44:14.595Z,99947.13
2018-11-06T13:46:43.096Z,99948.25
2018-11-06T13:49:19.331Z,99949.73
2018-11-06T13:51:48.141Z,99950.09
2018-11-06T13:54:17.014Z,99947.83
2018-11-06T13:56:45.779Z,99953.36
2018-11-06T13:59:21.946Z,99952.59
2018-11-06T14:01:50.762Z,99947.51
2018-11-06T14:04:19.543Z,99948.08
2018-11-06T14:06:48.221Z,99941.16
2018-11-06T14:09:17.002Z,99944.42
2018-11-06T14:11:45.824Z,99946.38
2018-11-06T14:14:14.565Z,99944.81
2018-11-06T14:16:43.257Z,99944.88
2018-11-06T14:19:19.614Z,99946.59
2018-11-06T14:21:48.439Z,99936.84
2018-11-06T14:24:17.271Z,99940.20
2018-11-06T14:26:46.083Z,99940.28
2018-11-06T14:29:22.170Z,99938.78
2018-11-06T14:31:50.992Z,99945.80
2018-11-06T14:34:19.818Z,99952.59
2018-11-06T14:36:48.506Z,99951.03
2018-11-06T14:39:24.726Z,99944.69
2018-11-06T14:41:53.565Z,99944.76
2018-11-06T14:44:22.265Z,99953.66
2018-11-06T14:46:51.021Z,99943.17
2018-11-06T14:49:20.024Z,99954.84
2018-11-06T14:51:48.687Z,99948.47
2018-11-06T14:54:17.533Z,99940.70
2018-11-06T14:56:46.204Z,99941.66
2018-11-06T14:59:40.949Z,99932.66
2018-11-06T15:02:09.609Z,99935.12
2018-11-06T15:04:38.714Z,99934.69
2018-11-06T15:07:07.456Z,99936.37
2018-11-06T15:09:39.973Z,99934.48
2018-11-06T15:12:08.738Z,99936.30
2018-11-06T15:14:37.582Z,99931.89
2018-11-06T15:17:06.796Z,99939.89
2018-11-06T15:19:35.777Z,99933.24
2018-11-06T15:22:04.627Z,99932.80
2018-11-06T15:24:33.430Z,99923.16
2018-11-06T15:27:02.083Z,99930.25
2018-11-06T15:29:32.971Z,99933.83
2018-11-06T15:32:01.765Z,99930.27
2018-11-06T15:34:30.422Z,99938.89
2018-11-06T15:36:59.166Z,99936.97
2018-11-06T15:39:35.691Z,99943.07
2018-11-06T15:42:04.457Z,99944.91
2018-11-06T15:44:33.115Z,99941.55
2018-11-06T15:47:01.933Z,99945.77
2018-11-06T15:49:30.776Z,99946.00
2018-11-06T15:51:59.600Z,99949.19
2018-11-06T15:54:28.314Z,99952.84
2018-11-06T15:56:57.412Z,99953.03
2018-11-06T15:59:26.224Z,99952.73
2018-11-06T16:01:55.375Z,99956.14
2018-11-06T16:04:24.034Z,99962.73
2018-11-06T16:06:52.777Z,99954.36
2018-11-06T16:09:29.003Z,99954.38
2018-11-06T16:11:57.708Z,99957.80
2018-11-06T16:14:26.491Z,99952.14
2018-11-06T16:16:55.740Z,99950.80
2018-11-06T16:19:24.481Z,99957.78
2018-11-06T16:21:53.276Z,99945.16
2018-11-06T16:24:22.170Z,99951.91
2018-11-06T16:26:50.778Z,99947.06
2018-11-06T16:29:26.670Z,99936.08
2018-11-06T16:31:55.369Z,99941.00
2018-11-06T16:34:24.102Z,99946.05
2018-11-06T16:36:52.716Z,99943.61
2018-11-06T16:39:29.764Z,99945.77
2018-11-06T16:41:58.526Z,99946.95
2018-11-06T16:44:27.241Z,99944.20
2018-11-06T16:46:55.935Z,99949.94
2018-11-06T16:49:41.949Z,99948.45
2018-11-06T16:52:10.606Z,99950.17
2018-11-06T16:54:39.264Z,99950.41
2018-11-06T16:57:07.968Z,99953.23
2018-11-06T16:59:36.627Z,99962.31
2018-11-06T17:02:05.504Z,99958.98
2018-11-06T17:04:34.116Z,99960.25
2018-11-06T17:07:02.816Z,99959.19
2018-11-06T17:09:31.508Z,99967.52
2018-11-06T17:12:00.228Z,99967.45
2018-11-06T17:14:28.930Z,99968.28
2018-11-06T17:16:57.601Z,99972.15
2018-11-06T17:19:26.320Z,99970.13
2018-11-06T17:21:55.072Z,99964.11
2018-11-06T17:24:23.667Z,99960.84
2018-11-06T17:26:53.300Z,99966.80
2018-11-06T17:29:21.964Z,99958.75
2018-11-06T17:31:51.859Z,99961.73
2018-11-06T17:34:20.706Z,99961.11
2018-11-06T17:36:49.422Z,99960.97
2018-11-06T17:39:18.227Z,99959.21
2018-11-06T17:41:47.998Z,99962.56
2018-11-06T17:44:16.810Z,99960.69
2018-11-06T17:46:45.576Z,99963.52
2018-11-06T17:49:14.475Z,99962.55
2018-11-06T17:51:44.335Z,99967.55
2018-11-06T17:54:13.130Z,99960.09
2018-11-06T17:56:41.794Z,99962.55
2018-11-06T17:59:10.600Z,99966.88
2018-11-06T18:01:46.687Z,99966.72
2018-11-06T18:04:15.617Z,99959.65
2018-11-06T18:06:44.382Z,99960.39
2018-11-06T18:09:13.707Z,99957.84
2018-11-06T18:11:49.940Z,99953.99
2018-11-06T18:14:18.557Z,99949.98
2018-11-06T18:16:47.288Z,99950.14
2018-11-06T18:19:15.909Z,99953.13
2018-11-06T18:21:44.787Z,99945.81
2018-11-06T18:24:13.554Z,99948.21
2018-11-06T18:26:42.385Z,99953.68
2018-11-06T18:29:11.056Z,99949.55
2018-11-06T18:31:43.394Z,99951.03
2018-11-06T18:34:12.279Z,99949.47
2018-11-06T18:36:41.217Z,99951.94
2018-11-06T18:39:12.101Z,99952.80
2018-11-06T18:41:51.457Z,99956.10
2018-11-06T18:44:20.368Z,99967.67
2018-11-06T18:46:49.601Z,99963.66
2018-11-06T18:49:18.768Z,99960.39
2018-11-06T18:51:48.836Z,99954.38
2018-11-06T18:54:17.963Z,99959.88
2018-11-06T18:56:47.052Z,99958.47
2018-11-06T18:59:16.088Z,99957.26
2018-11-06T19:01:45.181Z,99957.53
2018-11-06T19:04:14.241Z,99957.61
2018-11-06T19:06:43.375Z,99958.98
2018-11-06T19:09:13.308Z,99962.84
2018-11-06T19:11:42.670Z,99974.19
2018-11-06T19:14:12.366Z,99993.56
2018-11-06T19:16:41.597Z,99995.69
2018-11-06T19:19:10.656Z,100011.14
2018-11-06T19:21:39.670Z,100009.54
2018-11-06T19:24:08.792Z,100017.20
2018-11-06T19:26:37.943Z,100015.12
2018-11-06T19:29:07.596Z,100019.17
2018-11-06T19:31:36.699Z,100019.08
2018-11-06T19:34:06.667Z,100017.62
2018-11-06T19:36:35.786Z,100014.50
2018-11-06T19:39:08.516Z,100020.41
2018-11-06T19:41:37.736Z,100020.25
2018-11-06T19:44:07.235Z,100014.11
2018-11-06T19:46:36.374Z,100013.94
2018-11-06T19:49:05.695Z,100014.81
2018-11-06T19:51:35.552Z,100014.64
2018-11-06T19:54:04.794Z,100012.48
2018-11-06T19:56:33.856Z,100016.41
2018-11-06T19:59:03.046Z,100015.38
2018-11-06T20:01:33.609Z,100019.56
2018-11-06T20:04:03.491Z,100021.91
2018-11-06T20:06:36.192Z,100021.31
2018-11-06T20:09:07.964Z,100033.45
2018-11-06T20:11:39.241Z,100031.23
2018-11-06T20:14:10.504Z,100026.31
2018-11-06T20:16:40.773Z,100020.09
2018-11-06T20:19:12.860Z,100022.34
2018-11-06T20:21:43.164Z,100026.48
2018-11-06T20:24:12.667Z,100030.48
2018-11-06T20:26:42.590Z,100033.27
2018-11-06T20:29:12.067Z,100033.98
2018-11-06T20:31:41.466Z,100024.27
2018-11-06T20:34:11.563Z,100021.49
2018-11-06T20:36:40.865Z,100020.10
2018-11-06T20:39:11.076Z,100022.17
2018-11-06T20:41:43.063Z,100023.66
2018-11-06T20:44:13.575Z,100022.52
2018-11-06T20:46:43.692Z,100021.91
2018-11-06T20:49:12.860Z,100033.76
2018-11-06T20:51:43.636Z,100028.84
2018-11-06T20:54:13.041Z,100029.98
2018-11-06T20:56:42.613Z,100022.16
2018-11-06T20:59:11.849Z,100026.91
2018-11-06T21:01:41.069Z,100023.22
2018-11-06T21:04:11.019Z,100025.57
2018-11-06T21:06:40.330Z,100030.73
2018-11-06T21:09:11.207Z,100029.54
2018-11-06T21:11:41.168Z,100032.42
2018-11-06T21:14:10.432Z,100034.39
2018-11-06T21:16:39.543Z,100028.97
2018-11-06T21:19:08.764Z,100031.32
2018-11-06T21:21:37.833Z,100020.88
2018-11-06T21:24:07.067Z,100023.64
2018-11-06T21:26:36.415Z,100024.28
2018-11-06T21:29:05.483Z,100027.09
2018-11-06T21:31:35.023Z,100027.19
2018-11-06T21:34:04.186Z,100032.94
2018-11-06T21:36:33.283Z,100041.08
2018-11-06T21:39:02.170Z,100042.00
2018-11-06T21:41:31.167Z,100042.44
2018-11-06T21:43:59.980Z,100043.68
2018-11-06T21:46:28.871Z,100039.77
2018-11-06T21:48:57.694Z,100022.44
2018-11-06T21:51:26.644Z,100023.13
2018-11-06T21:53:55.434Z,100025.11
2018-11-06T21:56:24.170Z,100019.36
2018-11-06T21:58:52.874Z,100028.88
2018-11-06T22:01:21.666Z,100029.10
2018-11-06T22:03:50.443Z,100023.87
2018-11-06T22:06:19.440Z,100024.31
2018-11-06T22:08:48.112Z,100020.86
2018-11-06T22:11:17.828Z,100016.25
2018-11-06T22:13:47.572Z,100014.50
2018-11-06T22:16:17.207Z,100013.48
2018-11-06T22:18:46.066Z,100017.41
2018-11-06T22:21:14.843Z,100022.36
2018-11-06T22:23:43.555Z,100018.77
2018-11-06T22:26:12.300Z,100022.34
2018-11-06T22:28:41.205Z,100019.90
2018-11-06T22:31:10.098Z,100033.52
2018-11-06T22:33:38.739Z,100032.18
2018-11-06T22:36:07.457Z,100041.92
2018-11-06T22:38:36.247Z,100044.57
2018-11-06T22:41:05.040Z,100047.03
2018-11-06T22:43:33.772Z,100055.54
2018-11-06T22:46:02.568Z,100057.99
2018-11-06T22:48:31.377Z,100050.57
2018-11-06T22:51:00.596Z,100056.77
2018-11-06T22:53:29.374Z,100045.45
2018-11-06T22:55:58.145Z,100055.47
2018-11-06T22:58:27.758Z,100052.54
2018-11-06T23:01:01.657Z,100046.05
2018-11-06T23:03:30.876Z,100055.70
2018-11-06T23:05:59.874Z,100053.43
2018-11-06T23:08:29.466Z,100047.02
2018-11-06T23:10:58.306Z,100043.28
2018-11-06T23:13:27.121Z,100037.09
2018-11-06T23:15:55.934Z,100039.48
2018-11-06T23:18:24.709Z,100042.58
2018-11-06T23:20:53.373Z,100042.21
2018-11-06T23:23:22.484Z,100044.59
2018-11-06T23:25:51.344Z,100046.75
2018-11-06T23:28:20.085Z,100040.37
2018-11-06T23:30:48.817Z,100041.20
2018-11-06T23:33:17.562Z,100042.46
2018-11-06T23:35:46.367Z,100036.72
2018-11-06T23:38:15.139Z,100033.73
2018-11-06T23:40:43.758Z,100036.32
2018-11-06T23:43:12.589Z,100028.14
2018-11-06T23:45:41.459Z,100027.77
2018-11-06T23:48:10.269Z,100027.45
2018-11-06T23:50:39.138Z,100030.64
2018-11-06T23:53:07.910Z,100035.27
2018-11-06T23:55:36.738Z,100035.73
2018-11-06T23:58:05.762Z,100043.40
